createdAt,value
2022-12-04T00:01:39.673Z,101639.31
2022-12-04T00:04:08.272Z,101646.25
2022-12-04T00:06:36.448Z,101647.13
2022-12-04T00:09:05.550Z,101648.88
2022-12-04T00:11:34.295Z,101645.66
2022-12-04T00:14:06.951Z,101651.47
2022-12-04T00:16:36.865Z,101660.03
2022-12-04T00:19:06.428Z,101657.66
2022-12-04T00:21:34.468Z,101654.16
2022-12-04T00:24:02.642Z,101652.41
2022-12-04T00:26:31.677Z,101652.56
2022-12-04T00:28:59.985Z,101649.81
2022-12-04T00:31:29.992Z,101643.78
2022-12-04T00:34:00.596Z,101646.25
2022-12-04T00:36:30.304Z,101642.91
2022-12-04T00:39:00.392Z,101635.94
2022-12-04T00:41:33.898Z,101635.94
2022-12-04T00:44:03.458Z,101635.19
2022-12-04T00:46:31.641Z,101630.03
2022-12-04T00:49:02.631Z,101632.50
2022-12-04T00:51:31.289Z,101635.97
2022-12-04T00:53:59.280Z,101637.72
2022-12-04T00:56:30.452Z,101648.06
2022-12-04T00:59:01.169Z,101639.41
2022-12-04T01:01:30.124Z,101640.22
2022-12-04T01:03:58.257Z,101641.13
2022-12-04T01:06:29.877Z,101641.09
2022-12-04T01:09:00.653Z,101635.13
2022-12-04T01:11:30.368Z,101639.47
2022-12-04T01:13:59.562Z,101634.25
2022-12-04T01:16:30.760Z,101643.84
2022-12-04T01:18:59.075Z,101643.72
2022-12-04T01:21:28.548Z,101639.34
2022-12-04T01:23:56.575Z,101641.13
2022-12-04T01:26:24.834Z,101635.22
2022-12-04T01:28:52.816Z,101635.28
2022-12-04T01:31:22.686Z,101640.25
2022-12-04T01:33:51.876Z,101634.19
2022-12-04T01:36:24.185Z,101636.78
2022-12-04T01:38:54.407Z,101628.19
2022-12-04T01:41:25.571Z,101620.38
2022-12-04T01:44:15.359Z,101628.31
2022-12-04T01:46:44.637Z,101620.63
2022-12-04T01:49:16.590Z,101617.94
2022-12-04T01:51:49.267Z,101618.72
2022-12-04T01:54:28.209Z,101620.50
2022-12-04T01:57:00.625Z,101625.59
2022-12-04T01:59:32.985Z,101627.28
2022-12-04T02:02:04.793Z,101623.94
2022-12-04T02:04:34.940Z,101620.56
2022-12-04T02:07:03.032Z,101617.84
2022-12-04T02:09:33.482Z,101618.72
2022-12-04T02:12:08.703Z,101621.25
2022-12-04T02:14:45.501Z,101614.38
2022-12-04T02:17:22.126Z,101603.13
2022-12-04T02:20:00.225Z,101604.13
2022-12-04T02:22:45.059Z,101603.25
2022-12-04T02:25:25.653Z,101605.09
2022-12-04T02:28:03.882Z,101602.31
2022-12-04T02:30:36.062Z,101604.06
2022-12-04T02:33:09.604Z,101604.06
2022-12-04T02:35:42.303Z,101591.13
2022-12-04T02:38:16.750Z,101591.88
2022-12-04T02:40:52.489Z,101590.50
2022-12-04T02:43:26.362Z,101589.25
2022-12-04T02:46:00.957Z,101590.84
2022-12-04T02:48:32.239Z,101588.75
2022-12-04T02:51:02.910Z,101581.44
2022-12-04T02:53:36.287Z,101582.53
2022-12-04T02:56:10.565Z,101582.25
2022-12-04T02:58:45.654Z,101578.75
2022-12-04T03:01:23.744Z,101567.50
2022-12-04T03:03:57.147Z,101567.66
2022-12-04T03:06:28.289Z,101558.88
2022-12-04T03:09:02.324Z,101561.63
2022-12-04T03:11:35.848Z,101558.88
2022-12-04T03:14:10.754Z,101553.13
2022-12-04T03:16:42.016Z,101562.44
2022-12-04T03:19:14.263Z,101566.63
2022-12-04T03:21:47.520Z,101559.88
2022-12-04T03:24:20.948Z,101563.34
2022-12-04T03:26:52.938Z,101563.31
2022-12-04T03:29:29.554Z,101552.16
2022-12-04T03:32:04.933Z,101557.59
2022-12-04T03:34:40.186Z,101563.38
2022-12-04T03:37:14.625Z,101568.75
2022-12-04T03:39:52.623Z,101564.28
2022-12-04T03:42:26.634Z,101568.72
2022-12-04T03:45:02.908Z,101568.47
2022-12-04T03:47:36.767Z,101569.50
2022-12-04T03:50:10.503Z,101571.06
2022-12-04T03:52:47.664Z,101566.03
2022-12-04T03:55:22.944Z,101575.53
2022-12-04T03:57:53.399Z,101567.09
2022-12-04T04:00:23.951Z,101572.06
2022-12-04T04:02:56.888Z,101572.78
2022-12-04T04:05:26.881Z,101571.88
2022-12-04T04:08:18.169Z,101562.41
2022-12-04T04:10:46.575Z,101563.13
2022-12-04T04:13:37.467Z,101553.78
2022-12-04T04:16:28.460Z,101546.19
2022-12-04T04:19:17.222Z,101548.53
2022-12-04T04:22:04.540Z,101538.06
2022-12-04T04:24:40.160Z,101549.25
2022-12-04T04:27:08.511Z,101539.78
2022-12-04T04:29:37.010Z,101538.19
2022-12-04T04:32:13.338Z,101552.06
2022-12-04T04:34:49.910Z,101547.50
2022-12-04T04:37:29.999Z,101546.88
2022-12-04T04:40:05.958Z,101544.22
2022-12-04T04:42:39.196Z,101531.94
2022-12-04T04:45:15.006Z,101550.97
2022-12-04T04:47:49.985Z,101554.13
2022-12-04T04:50:19.626Z,101556.31
2022-12-04T04:52:51.992Z,101560.41
2022-12-04T04:55:21.133Z,101553.63
2022-12-04T04:57:50.752Z,101545.13
2022-12-04T05:00:22.044Z,101549.47
2022-12-04T05:02:51.412Z,101550.09
2022-12-04T05:05:19.470Z,101550.81
2022-12-04T05:07:47.602Z,101555.22
2022-12-04T05:10:15.580Z,101551.72
2022-12-04T05:12:43.506Z,101562.03
2022-12-04T05:15:12.186Z,101559.50
2022-12-04T05:17:40.182Z,101560.31
2022-12-04T05:20:11.738Z,101559.69
2022-12-04T05:22:39.633Z,101548.25
2022-12-04T05:25:08.386Z,101563.56
2022-12-04T05:27:36.312Z,101559.41
2022-12-04T05:30:05.265Z,101561.88
2022-12-04T05:32:33.165Z,101550.97
2022-12-04T05:35:01.642Z,101546.41
2022-12-04T05:37:32.378Z,101557.72
2022-12-04T05:40:00.284Z,101549.97
2022-12-04T05:42:28.151Z,101551.44
2022-12-04T05:44:56.112Z,101545.47
2022-12-04T05:47:24.012Z,101555.75
2022-12-04T05:49:52.229Z,101558.34
2022-12-04T05:52:20.299Z,101560.13
2022-12-04T05:54:49.520Z,101550.94
2022-12-04T05:57:17.350Z,101546.41
2022-12-04T05:59:45.267Z,101547.38
2022-12-04T06:02:13.216Z,101548.09
2022-12-04T06:04:41.199Z,101548.97
2022-12-04T06:07:10.573Z,101545.69
2022-12-04T06:09:39.058Z,101549.94
2022-12-04T06:12:08.518Z,101547.31
2022-12-04T06:14:39.783Z,101545.53
2022-12-04T06:17:08.290Z,101556.53
2022-12-04T06:19:36.548Z,101552.28
2022-12-04T06:22:05.022Z,101553.09
2022-12-04T06:24:33.024Z,101550.47
2022-12-04T06:27:26.633Z,101558.19
2022-12-04T06:29:51.006Z,101552.22
2022-12-04T06:32:21.841Z,101544.66
2022-12-04T06:34:52.503Z,101547.03
2022-12-04T06:37:20.800Z,101544.56
2022-12-04T06:39:48.723Z,101540.72
2022-12-04T06:42:16.897Z,101543.44
2022-12-04T06:44:44.859Z,101551.38
2022-12-04T06:47:14.127Z,101548.09
2022-12-04T06:49:42.207Z,101556.75
2022-12-04T06:52:10.110Z,101550.59
2022-12-04T06:54:38.034Z,101545.28
2022-12-04T06:57:05.940Z,101548.03
2022-12-04T06:59:34.025Z,101558.09
2022-12-04T07:02:02.066Z,101551.72
2022-12-04T07:04:31.373Z,101559.97
2022-12-04T07:06:59.337Z,101551.97
2022-12-04T07:09:27.453Z,101545.94
2022-12-04T07:11:55.446Z,101547.19
2022-12-04T07:14:23.375Z,101546.16
2022-12-04T07:16:51.449Z,101540.88
2022-12-04T07:19:19.516Z,101555.09
2022-12-04T07:21:48.814Z,101551.81
2022-12-04T07:24:18.132Z,101544.03
2022-12-04T07:26:46.301Z,101538.16
2022-12-04T07:29:14.567Z,101546.53
2022-12-04T07:31:44.173Z,101545.44
2022-12-04T07:34:12.274Z,101545.91
2022-12-04T07:36:41.270Z,101545.13
2022-12-04T07:39:10.525Z,101551.88
2022-12-04T07:41:38.535Z,101554.06
2022-12-04T07:44:08.713Z,101551.69
2022-12-04T07:46:36.629Z,101554.25
2022-12-04T07:49:04.612Z,101557.81
2022-12-04T07:51:32.570Z,101561.78
2022-12-04T07:54:03.629Z,101565.31
2022-12-04T07:56:37.846Z,101569.63
2022-12-04T07:59:05.877Z,101567.28
2022-12-04T08:01:34.262Z,101564.78
2022-12-04T08:05:27.729Z,101567.03
2022-12-04T08:07:55.690Z,101574.84
2022-12-04T08:10:23.896Z,101563.69
2022-12-04T08:12:51.779Z,101573.94
2022-12-04T08:15:19.631Z,101575.16
2022-12-04T08:17:47.604Z,101580.13
2022-12-04T08:20:16.268Z,101571.47
2022-12-04T08:22:45.500Z,101578.16
2022-12-04T08:25:13.425Z,101567.78
2022-12-04T08:27:47.741Z,101577.72
2022-12-04T08:30:16.073Z,101578.38
2022-12-04T08:32:44.018Z,101569.47
2022-12-04T08:35:11.959Z,101568.66
2022-12-04T08:37:39.937Z,101569.31
2022-12-04T08:40:11.527Z,101565.13
2022-12-04T08:42:39.507Z,101574.69
2022-12-04T08:45:08.767Z,101578.09
2022-12-04T08:47:36.709Z,101580.81
2022-12-04T08:50:05.437Z,101573.84
2022-12-04T08:52:33.379Z,101573.84
2022-12-04T08:55:01.285Z,101572.19
2022-12-04T08:57:30.539Z,101571.25
2022-12-04T08:59:58.751Z,101565.91
2022-12-04T09:02:26.823Z,101571.09
2022-12-04T09:04:57.570Z,101559.00
2022-12-04T09:07:25.577Z,101566.88
2022-12-04T09:09:53.504Z,101561.69
2022-12-04T09:12:24.138Z,101547.63
2022-12-04T09:14:53.408Z,101567.56
2022-12-04T09:17:21.486Z,101565.84
2022-12-04T09:19:50.036Z,101565.06
2022-12-04T09:22:18.020Z,101573.63
2022-12-04T09:24:45.869Z,101576.13
2022-12-04T09:27:15.111Z,101572.75
2022-12-04T09:29:43.125Z,101570.94
2022-12-04T09:32:12.409Z,101583.81
2022-12-04T09:34:47.047Z,101576.00
2022-12-04T09:37:18.910Z,101575.34
2022-12-04T09:39:47.478Z,101572.44
2022-12-04T09:42:36.829Z,101568.97
2022-12-04T09:45:11.835Z,101566.47
2022-12-04T09:47:45.549Z,101569.00
2022-12-04T09:50:17.862Z,101566.38
2022-12-04T09:52:51.962Z,101558.75
2022-12-04T09:55:25.330Z,101557.63
2022-12-04T09:58:01.492Z,101556.78
2022-12-04T10:00:33.511Z,101549.81
2022-12-04T10:03:06.423Z,101546.38
2022-12-04T10:05:50.528Z,101544.72
2022-12-04T10:08:23.469Z,101538.06
2022-12-04T10:11:00.566Z,101537.78
2022-12-04T10:13:58.262Z,101531.38
2022-12-04T10:16:34.489Z,101530.56
2022-12-04T10:19:09.309Z,101527.06
2022-12-04T10:21:50.893Z,101529.94
2022-12-04T10:24:27.121Z,101534.22
2022-12-04T10:26:59.300Z,101528.28
2022-12-04T10:29:31.742Z,101525.56
2022-12-04T10:32:13.809Z,101522.38
2022-12-04T10:34:46.238Z,101515.97
2022-12-04T10:37:16.170Z,101512.41
2022-12-04T10:39:49.049Z,101513.53
2022-12-04T10:42:26.683Z,101503.25
2022-12-04T10:44:55.075Z,101498.47
2022-12-04T10:47:24.618Z,101507.69
2022-12-04T10:49:59.858Z,101506.22
2022-12-04T10:52:27.804Z,101500.28
2022-12-04T10:54:59.303Z,101504.88
2022-12-04T10:57:37.353Z,101494.25
2022-12-04T11:00:24.051Z,101498.59
2022-12-04T11:02:53.130Z,101497.97
2022-12-04T11:05:29.440Z,101501.59
2022-12-04T11:07:58.343Z,101496.84
2022-12-04T11:10:32.933Z,101488.03
2022-12-04T11:13:02.654Z,101495.75
2022-12-04T11:15:31.291Z,101497.53
2022-12-04T11:18:09.060Z,101493.84
2022-12-04T11:20:40.752Z,101494.00
2022-12-04T11:23:17.341Z,101488.84
2022-12-04T11:25:47.807Z,101489.66
2022-12-04T11:28:40.163Z,101483.63
2022-12-04T11:31:12.051Z,101489.84
2022-12-04T11:33:44.201Z,101494.78
2022-12-04T11:36:21.869Z,101487.03
2022-12-04T11:38:50.700Z,101487.06
2022-12-04T11:41:27.078Z,101482.53
2022-12-04T11:43:59.539Z,101487.56
2022-12-04T11:46:30.812Z,101486.69
2022-12-04T11:48:59.082Z,101485.97
2022-12-04T11:51:40.867Z,101486.03
2022-12-04T11:54:21.618Z,101474.09
2022-12-04T11:56:59.845Z,101470.41
2022-12-04T11:59:48.759Z,101465.31
2022-12-04T12:02:34.218Z,101466.78
2022-12-04T12:05:28.434Z,101461.69
2022-12-04T12:08:06.948Z,101458.16
2022-12-04T12:10:45.008Z,101462.50
2022-12-04T12:13:19.699Z,101458.16
2022-12-04T12:15:56.725Z,101459.81
2022-12-04T12:18:44.883Z,101468.97
2022-12-04T12:21:21.426Z,101459.66
2022-12-04T12:24:08.284Z,101454.50
2022-12-04T12:26:46.369Z,101463.03
2022-12-04T12:29:27.894Z,101461.13
2022-12-04T12:32:09.914Z,101463.06
2022-12-04T12:34:41.499Z,101463.19
2022-12-04T12:37:17.969Z,101457.06
2022-12-04T12:39:56.793Z,101461.41
2022-12-04T12:42:31.732Z,101461.25
2022-12-04T12:45:05.730Z,101463.91
2022-12-04T12:47:41.953Z,101460.44
2022-12-04T12:50:16.662Z,101460.44
2022-12-04T12:52:52.708Z,101449.28
2022-12-04T12:55:27.017Z,101454.53
2022-12-04T12:58:02.325Z,101453.63
2022-12-04T13:00:33.335Z,101458.69
2022-12-04T13:03:04.900Z,101460.44
2022-12-04T13:05:38.616Z,101459.81
2022-12-04T13:08:18.049Z,101461.19
2022-12-04T13:10:51.123Z,101457.78
2022-12-04T13:13:27.406Z,101448.16
2022-12-04T13:16:00.396Z,101451.59
2022-12-04T13:18:31.504Z,101448.06
2022-12-04T13:21:03.217Z,101449.94
2022-12-04T13:23:47.955Z,101451.75
2022-12-04T13:26:30.815Z,101463.78
2022-12-04T13:29:09.845Z,101455.84
2022-12-04T13:31:53.092Z,101457.00
2022-12-04T13:34:45.307Z,101447.97
2022-12-04T13:37:45.190Z,101433.28
2022-12-04T13:40:38.617Z,101427.09
2022-12-04T13:43:28.879Z,101420.41
2022-12-04T13:46:00.309Z,101410.22
2022-12-04T13:48:36.433Z,101403.16
2022-12-04T13:51:23.384Z,101382.91
2022-12-04T13:54:03.194Z,101389.63
2022-12-04T13:56:32.841Z,101393.66
2022-12-04T13:59:06.355Z,101396.06
2022-12-04T14:01:40.338Z,101390.16
2022-12-04T14:04:08.932Z,101395.81
2022-12-04T14:06:40.351Z,101394.22
2022-12-04T14:09:19.527Z,101400.41
2022-12-04T14:11:52.290Z,101401.97
2022-12-04T14:14:29.490Z,101405.56
2022-12-04T14:17:03.160Z,101402.25
2022-12-04T14:19:35.542Z,101419.59
2022-12-04T14:22:04.586Z,101412.81
2022-12-04T14:24:36.140Z,101411.75
2022-12-04T14:27:24.936Z,101410.88
2022-12-04T14:29:57.951Z,101416.75
2022-12-04T14:32:29.063Z,101416.91
2022-12-04T14:34:58.926Z,101412.56
2022-12-04T14:37:32.070Z,101405.38
2022-12-04T14:40:01.742Z,101407.22
2022-12-04T14:42:37.692Z,101410.84
2022-12-04T14:45:22.537Z,101409.31
2022-12-04T14:48:16.952Z,101410.25
2022-12-04T14:50:55.529Z,101413.69
2022-12-04T14:53:36.078Z,101409.13
2022-12-04T14:56:18.919Z,101410.03
2022-12-04T14:58:47.203Z,101402.31
2022-12-04T15:01:28.962Z,101400.53
2022-12-04T15:04:03.899Z,101397.13
2022-12-04T15:06:34.819Z,101396.97
2022-12-04T15:09:23.082Z,101392.56
2022-12-04T15:12:13.744Z,101394.56
2022-12-04T15:14:43.526Z,101396.00
2022-12-04T15:17:19.379Z,101394.16
2022-12-04T15:19:48.711Z,101396.06
2022-12-04T15:22:24.163Z,101395.22
2022-12-04T15:24:55.918Z,101406.31
2022-12-04T15:27:32.622Z,101409.03
2022-12-04T15:30:05.393Z,101407.72
2022-12-04T15:32:35.485Z,101408.66
2022-12-04T15:35:06.997Z,101419.59
2022-12-04T15:37:38.164Z,101411.81
2022-12-04T15:40:07.990Z,101418.69
2022-12-04T15:42:36.175Z,101416.91
2022-12-04T15:45:26.359Z,101417.69
2022-12-04T15:47:57.180Z,101405.69
2022-12-04T15:50:28.040Z,101411.50
2022-12-04T15:53:00.766Z,101411.44
2022-12-04T15:55:31.792Z,101406.03
2022-12-04T15:58:05.831Z,101416.41
2022-12-04T16:00:37.288Z,101404.50
2022-12-04T16:03:22.814Z,101408.03
2022-12-04T16:05:50.991Z,101415.56
2022-12-04T16:08:27.090Z,101405.84
2022-12-04T16:11:00.484Z,101416.63
2022-12-04T16:13:32.284Z,101411.44
2022-12-04T16:16:01.332Z,101413.31
2022-12-04T16:18:30.820Z,101422.78
2022-12-04T16:20:58.913Z,101415.16
2022-12-04T16:23:30.304Z,101420.88
2022-12-04T16:25:58.299Z,101421.88
2022-12-04T16:28:26.305Z,101420.06
2022-12-04T16:30:54.674Z,101420.13
2022-12-04T16:33:22.769Z,101420.88
2022-12-04T16:35:52.097Z,101415.75
2022-12-04T16:38:22.598Z,101408.59
2022-12-04T16:40:50.713Z,101410.31
2022-12-04T16:43:22.116Z,101409.53
2022-12-04T16:45:53.362Z,101412.03
2022-12-04T16:48:21.463Z,101417.34
2022-12-04T16:50:49.619Z,101411.06
2022-12-04T16:53:21.172Z,101406.56
2022-12-04T16:55:50.872Z,101407.53
2022-12-04T16:58:20.290Z,101394.69
2022-12-04T17:00:53.270Z,101400.69
2022-12-04T17:03:25.575Z,101416.16
2022-12-04T17:05:53.706Z,101411.97
2022-12-04T17:08:23.971Z,101406.78
2022-12-04T17:10:52.988Z,101405.03
2022-12-04T17:13:22.255Z,101408.56
2022-12-04T17:15:53.460Z,101412.84
2022-12-04T17:18:28.708Z,101414.69
2022-12-04T17:20:58.598Z,101405.38
2022-12-04T17:23:28.265Z,101405.88
2022-12-04T17:25:56.331Z,101397.22
2022-12-04T17:28:24.495Z,101395.66
2022-12-04T17:30:52.498Z,101401.59
2022-12-04T17:33:23.295Z,101403.31
2022-12-04T17:35:53.047Z,101396.69
2022-12-04T17:38:23.528Z,101396.28
2022-12-04T17:41:01.121Z,101406.69
2022-12-04T17:43:32.073Z,101413.44
2022-12-04T17:46:00.725Z,101413.31
2022-12-04T17:48:30.075Z,101406.53
2022-12-04T17:51:08.421Z,101405.72
2022-12-04T17:53:39.260Z,101407.00
2022-12-04T17:56:11.475Z,101403.38
2022-12-04T17:58:39.893Z,101410.41
2022-12-04T18:01:12.491Z,101399.16
2022-12-04T18:03:41.243Z,101394.63
2022-12-04T18:06:14.808Z,101396.25
2022-12-04T18:08:48.294Z,101391.41
2022-12-04T18:11:21.427Z,101392.50
2022-12-04T18:13:50.117Z,101391.59
2022-12-04T18:16:20.241Z,101393.56
2022-12-04T18:18:48.618Z,101388.00
2022-12-04T18:21:19.386Z,101386.53
2022-12-04T18:23:47.430Z,101386.47
2022-12-04T18:26:17.436Z,101391.63
2022-12-04T18:28:47.703Z,101389.91
2022-12-04T18:31:21.344Z,101383.06
2022-12-04T18:33:50.261Z,101392.50
2022-12-04T18:36:21.087Z,101382.81
2022-12-04T18:38:54.824Z,101392.25
2022-12-04T18:41:22.950Z,101394.97
2022-12-04T18:43:52.521Z,101398.44
2022-12-04T18:46:23.631Z,101391.75
2022-12-04T18:48:54.597Z,101394.91
2022-12-04T18:51:24.503Z,101393.28
2022-12-04T18:53:55.319Z,101401.09
2022-12-04T18:56:25.867Z,101404.53
2022-12-04T18:58:59.986Z,101400.97
2022-12-04T19:01:29.018Z,101394.00
2022-12-04T19:04:00.784Z,101402.88
2022-12-04T19:06:30.870Z,101404.47
2022-12-04T19:09:01.347Z,101407.94
2022-12-04T19:11:29.643Z,101407.00
2022-12-04T19:13:59.552Z,101409.72
2022-12-04T19:16:28.261Z,101404.16
2022-12-04T19:18:57.348Z,101412.25
2022-12-04T19:21:25.335Z,101407.69
2022-12-04T19:23:58.136Z,101405.84
2022-12-04T19:26:26.811Z,101413.31
2022-12-04T19:28:55.921Z,101406.44
2022-12-04T19:31:27.627Z,101411.81
2022-12-04T19:33:57.730Z,101405.72
2022-12-04T19:36:26.326Z,101405.78
2022-12-04T19:38:54.607Z,101406.41
2022-12-04T19:41:25.654Z,101410.59
2022-12-04T19:43:57.124Z,101411.47
2022-12-04T19:46:29.065Z,101416.44
2022-12-04T19:49:01.463Z,101414.91
2022-12-04T19:51:32.011Z,101408.69
2022-12-04T19:54:01.210Z,101403.63
2022-12-04T19:56:31.604Z,101401.97
2022-12-04T19:59:03.086Z,101405.91
2022-12-04T20:01:33.377Z,101399.06
2022-12-04T20:04:03.588Z,101411.28
2022-12-04T20:06:35.687Z,101403.50
2022-12-04T20:09:06.184Z,101399.06
2022-12-04T20:11:35.193Z,101397.53
2022-12-04T20:14:04.214Z,101394.94
2022-12-04T20:16:35.712Z,101391.19
2022-12-04T20:19:06.204Z,101385.25
2022-12-04T20:21:35.127Z,101385.19
2022-12-04T20:24:06.584Z,101382.38
2022-12-04T20:26:37.464Z,101382.00
2022-12-04T20:29:07.261Z,101374.84
2022-12-04T20:31:39.648Z,101374.97
2022-12-04T20:34:11.479Z,101374.78
2022-12-04T20:36:41.654Z,101368.03
2022-12-04T20:39:11.471Z,101374.72
2022-12-04T20:41:39.963Z,101373.09
2022-12-04T20:44:12.421Z,101375.91
2022-12-04T20:46:42.560Z,101374.94
2022-12-04T20:49:20.705Z,101366.31
2022-12-04T20:51:51.004Z,101368.88
2022-12-04T20:54:21.371Z,101368.03
2022-12-04T20:56:49.863Z,101381.84
2022-12-04T20:59:19.309Z,101380.47
2022-12-04T21:01:50.466Z,101387.03
2022-12-04T21:04:19.104Z,101376.34
2022-12-04T21:06:47.783Z,101379.41
2022-12-04T21:09:18.057Z,101375.25
2022-12-04T21:11:49.204Z,101376.28
2022-12-04T21:14:36.638Z,101378.34
2022-12-04T21:17:07.429Z,101372.66
2022-12-04T21:19:35.764Z,101372.59
2022-12-04T21:22:04.109Z,101371.44
2022-12-04T21:24:38.389Z,101374.97
2022-12-04T21:27:07.760Z,101371.63
2022-12-04T21:29:35.986Z,101370.88
2022-12-04T21:32:04.623Z,101368.22
2022-12-04T21:34:34.647Z,101366.38
2022-12-04T21:37:02.597Z,101377.66
2022-12-04T21:39:30.773Z,101370.75
2022-12-04T21:42:18.731Z,101366.59
2022-12-04T21:44:46.852Z,101364.63
2022-12-04T21:47:16.740Z,101364.63
2022-12-04T21:49:48.943Z,101362.00
2022-12-04T21:52:27.897Z,101357.88
2022-12-04T21:54:56.648Z,101362.06
2022-12-04T21:57:25.317Z,101364.72
2022-12-04T21:59:57.736Z,101363.09
2022-12-04T22:02:26.041Z,101355.38
2022-12-04T22:04:55.713Z,101353.59
2022-12-04T22:07:23.868Z,101352.63
2022-12-04T22:09:51.825Z,101352.00
2022-12-04T22:12:47.717Z,101355.31
2022-12-04T22:15:09.022Z,101360.50
2022-12-04T22:17:39.241Z,101357.00
2022-12-04T22:20:09.528Z,101350.19
2022-12-04T22:22:37.535Z,101348.41
2022-12-04T22:25:06.017Z,101351.75
2022-12-04T22:27:34.132Z,101355.44
2022-12-04T22:30:02.484Z,101351.13
2022-12-04T22:32:32.312Z,101344.84
2022-12-04T22:35:00.339Z,101351.69
2022-12-04T22:37:29.576Z,101343.13
2022-12-04T22:40:00.436Z,101354.28
2022-12-04T22:42:28.411Z,101350.72
2022-12-04T22:44:56.408Z,101344.28
2022-12-04T22:47:24.416Z,101343.47
2022-12-04T22:49:52.360Z,101341.63
2022-12-04T22:52:20.469Z,101335.56
2022-12-04T22:54:51.171Z,101338.91
2022-12-04T22:57:19.435Z,101334.59
2022-12-04T22:59:47.320Z,101337.31
2022-12-04T23:02:15.226Z,101320.84
2022-12-04T23:04:43.773Z,101332.88
2022-12-04T23:07:11.848Z,101324.06
2022-12-04T23:09:40.104Z,101323.13
2022-12-04T23:12:10.053Z,101325.66
2022-12-04T23:14:37.968Z,101322.13
2022-12-04T23:17:06.145Z,101323.19
2022-12-04T23:19:34.309Z,101320.66
2022-12-04T23:22:02.308Z,101319.16
2022-12-04T23:24:30.244Z,101323.53
2022-12-04T23:26:58.284Z,101323.41
2022-12-04T23:29:51.956Z,101331.09
2022-12-04T23:32:16.389Z,101324.47
2022-12-04T23:34:44.436Z,101314.72
2022-12-04T23:37:12.482Z,101323.31
2022-12-04T23:39:40.512Z,101318.00
2022-12-04T23:42:08.508Z,101313.91
2022-12-04T23:44:37.989Z,101320.66
2022-12-04T23:47:05.987Z,101317.31
2022-12-04T23:49:34.187Z,101316.63
2022-12-04T23:52:02.529Z,101323.94
2022-12-04T23:54:34.923Z,101325.84
2022-12-04T23:57:03.262Z,101321.69
2022-12-04T23:59:31.595Z,101317.84
